sensor_id;sensor_type;location;lat;lon;timestamp;pressure;altitude;pressure_sealevel;temperature;humidity
18436;BME280;9346;52.006;4.720;2023-08-20T00:00:13;101957.19;;;19.99;100.00
18436;BME280;9346;52.006;4.720;2023-08-20T00:02:42;101959.19;;;19.99;100.00
18436;BME280;9346;52.006;4.720;2023-08-20T00:05:10;101956.88;;;20.01;100.00
18436;BME280;9346;52.006;4.720;2023-08-20T00:07:39;101967.25;;;20.00;100.00
18436;BME280;9346;52.006;4.720;2023-08-20T00:10:07;101970.06;;;20.00;100.00
18436;BME280;9346;52.006;4.720;2023-08-20T00:12:35;101977.28;;;20.01;100.00
18436;BME280;9346;52.006;4.720;2023-08-20T00:15:03;101977.28;;;20.01;100.00
18436;BME280;9346;52.006;4.720;2023-08-20T00:17:32;101978.13;;;20.02;100.00
18436;BME280;9346;52.006;4.720;2023-08-20T00:20:00;101976.69;;;20.04;100.00
18436;BME280;9346;52.006;4.720;2023-08-20T00:22:28;101966.34;;;20.05;100.00
18436;BME280;9346;52.006;4.720;2023-08-20T00:24:58;101957.09;;;20.04;100.00
18436;BME280;9346;52.006;4.720;2023-08-20T00:27:25;101972.53;;;20.02;100.00
18436;BME280;9346;52.006;4.720;2023-08-20T00:29:51;101973.78;;;19.96;100.00
18436;BME280;9346;52.006;4.720;2023-08-20T00:32:18;101968.28;;;19.90;100.00
18436;BME280;9346;52.006;4.720;2023-08-20T00:34:45;101981.44;;;19.90;100.00
18436;BME280;9346;52.006;4.720;2023-08-20T00:37:12;101993.97;;;19.92;100.00
18436;BME280;9346;52.006;4.720;2023-08-20T00:39:39;101998.94;;;19.96;100.00
18436;BME280;9346;52.006;4.720;2023-08-20T00:42:08;102004.53;;;19.96;100.00
18436;BME280;9346;52.006;4.720;2023-08-20T00:44:35;102012.63;;;19.97;100.00
18436;BME280;9346;52.006;4.720;2023-08-20T00:47:04;102014.56;;;19.97;100.00
18436;BME280;9346;52.006;4.720;2023-08-20T00:49:31;102022.13;;;19.96;100.00
18436;BME280;9346;52.006;4.720;2023-08-20T00:51:59;102022.97;;;19.97;100.00
18436;BME280;9346;52.006;4.720;2023-08-20T00:54:26;102021.31;;;19.96;100.00
18436;BME280;9346;52.006;4.720;2023-08-20T00:56:54;102028.38;;;19.93;100.00
18436;BME280;9346;52.006;4.720;2023-08-20T00:59:23;102027.59;;;19.87;100.00
18436;BME280;9346;52.006;4.720;2023-08-20T01:01:50;102020.44;;;19.81;100.00
18436;BME280;9346;52.006;4.720;2023-08-20T01:04:17;102018.59;;;19.77;100.00
18436;BME280;9346;52.006;4.720;2023-08-20T01:06:51;102013.81;;;19.77;100.00
18436;BME280;9346;52.006;4.720;2023-08-20T01:09:25;102018.59;;;19.77;100.00
18436;BME280;9346;52.006;4.720;2023-08-20T01:11:59;102021.91;;;19.79;100.00
18436;BME280;9346;52.006;4.720;2023-08-20T01:14:28;102015.16;;;19.80;100.00
18436;BME280;9346;52.006;4.720;2023-08-20T01:16:55;102013.75;;;19.82;100.00
18436;BME280;9346;52.006;4.720;2023-08-20T01:19:22;102022.94;;;19.83;100.00
18436;BME280;9346;52.006;4.720;2023-08-20T01:22:15;102027.09;;;19.85;100.00
18436;BME280;9346;52.006;4.720;2023-08-20T01:24:59;102018.19;;;19.83;100.00
18436;BME280;9346;52.006;4.720;2023-08-20T01:27:38;102030.22;;;19.84;100.00
18436;BME280;9346;52.006;4.720;2023-08-20T01:30:09;102031.00;;;19.84;100.00
18436;BME280;9346;52.006;4.720;2023-08-20T01:32:38;102026.25;;;19.85;100.00
18436;BME280;9346;52.006;4.720;2023-08-20T01:35:07;102031.84;;;19.85;100.00
18436;BME280;9346;52.006;4.720;2023-08-20T01:37:35;102031.84;;;19.85;100.00
18436;BME280;9346;52.006;4.720;2023-08-20T01:40:02;102026.88;;;19.82;100.00
18436;BME280;9346;52.006;4.720;2023-08-20T01:42:32;102030.28;;;19.79;100.00
18436;BME280;9346;52.006;4.720;2023-08-20T01:44:59;102036.50;;;19.76;100.00
18436;BME280;9346;52.006;4.720;2023-08-20T01:47:27;102032.88;;;19.75;100.00
18436;BME280;9346;52.006;4.720;2023-08-20T01:49:54;102034.84;;;19.75;100.00
18436;BME280;9346;52.006;4.720;2023-08-20T01:52:21;102039.59;;;19.74;100.00
18436;BME280;9346;52.006;4.720;2023-08-20T01:54:48;102033.81;;;19.71;100.00
18436;BME280;9346;52.006;4.720;2023-08-20T01:57:15;102029.31;;;19.70;100.00
18436;BME280;9346;52.006;4.720;2023-08-20T01:59:42;102030.78;;;19.67;100.00
18436;BME280;9346;52.006;4.720;2023-08-20T02:02:09;102025.78;;;19.64;100.00
18436;BME280;9346;52.006;4.720;2023-08-20T02:04:38;102020.81;;;19.61;100.00
18436;BME280;9346;52.006;4.720;2023-08-20T02:07:04;102033.13;;;19.60;100.00
18436;BME280;9346;52.006;4.720;2023-08-20T02:09:31;102033.44;;;19.59;100.00
18436;BME280;9346;52.006;4.720;2023-08-20T02:11:58;102020.09;;;19.56;100.00
18436;BME280;9346;52.006;4.720;2023-08-20T02:14:27;102023.28;;;19.49;100.00
18436;BME280;9346;52.006;4.720;2023-08-20T02:16:54;102017.47;;;19.46;100.00
18436;BME280;9346;52.006;4.720;2023-08-20T02:19:21;102014.97;;;19.44;100.00
18436;BME280;9346;52.006;4.720;2023-08-20T02:21:49;102012.47;;;19.43;100.00
18436;BME280;9346;52.006;4.720;2023-08-20T02:24:17;102020.88;;;19.43;100.00
18436;BME280;9346;52.006;4.720;2023-08-20T02:26:45;102024.50;;;19.43;100.00
18436;BME280;9346;52.006;4.720;2023-08-20T02:29:12;102022.00;;;19.42;100.00
18436;BME280;9346;52.006;4.720;2023-08-20T02:31:39;102027.59;;;19.42;100.00
18436;BME280;9346;52.006;4.720;2023-08-20T02:34:06;102022.63;;;19.39;100.00
18436;BME280;9346;52.006;4.720;2023-08-20T02:36:32;102020.72;;;19.34;100.00
18436;BME280;9346;52.006;4.720;2023-08-20T02:39:01;102020.19;;;19.32;100.00
18436;BME280;9346;52.006;4.720;2023-08-20T02:41:29;102023.28;;;19.31;100.00
18436;BME280;9346;52.006;4.720;2023-08-20T02:43:56;102028.38;;;19.29;100.00
18436;BME280;9346;52.006;4.720;2023-08-20T02:46:23;102024.19;;;19.26;100.00
18436;BME280;9346;52.006;4.720;2023-08-20T02:48:49;102026.81;;;19.18;100.00
18436;BME280;9346;52.006;4.720;2023-08-20T02:51:16;102026.16;;;19.07;100.00
18436;BME280;9346;52.006;4.720;2023-08-20T02:53:43;102029.94;;;18.98;100.00
18436;BME280;9346;52.006;4.720;2023-08-20T02:56:11;102045.34;;;18.95;100.00
18436;BME280;9346;52.006;4.720;2023-08-20T02:58:38;102040.25;;;18.97;100.00
18436;BME280;9346;52.006;4.720;2023-08-20T03:01:05;102046.09;;;19.01;100.00
18436;BME280;9346;52.006;4.720;2023-08-20T03:03:32;102043.53;;;19.04;100.00
18436;BME280;9346;52.006;4.720;2023-08-20T03:05:59;102050.47;;;19.07;100.00
18436;BME280;9346;52.006;4.720;2023-08-20T03:08:26;102054.06;;;19.07;100.00
18436;BME280;9346;52.006;4.720;2023-08-20T03:10:53;102054.06;;;19.07;100.00
18436;BME280;9346;52.006;4.720;2023-08-20T03:13:21;102056.88;;;19.07;100.00
18436;BME280;9346;52.006;4.720;2023-08-20T03:15:48;102058.84;;;19.07;100.00
18436;BME280;9346;52.006;4.720;2023-08-20T03:18:15;102058.00;;;19.06;100.00
18436;BME280;9346;52.006;4.720;2023-08-20T03:20:42;102051.06;;;19.04;100.00
18436;BME280;9346;52.006;4.720;2023-08-20T03:23:09;102051.06;;;19.04;100.00
18436;BME280;9346;52.006;4.720;2023-08-20T03:25:36;102056.13;;;19.02;100.00
18436;BME280;9346;52.006;4.720;2023-08-20T03:28:03;102058.91;;;19.02;100.00
18436;BME280;9346;52.006;4.720;2023-08-20T03:30:32;102059.22;;;19.00;100.00
18436;BME280;9346;52.006;4.720;2023-08-20T03:32:59;102053.63;;;19.00;100.00
18436;BME280;9346;52.006;4.720;2023-08-20T03:35:26;102052.50;;;19.01;100.00
18436;BME280;9346;52.006;4.720;2023-08-20T03:37:53;102047.75;;;19.02;100.00
18436;BME280;9346;52.006;4.720;2023-08-20T03:40:20;102047.75;;;19.02;100.00
18436;BME280;9346;52.006;4.720;2023-08-20T03:42:47;102052.50;;;19.01;100.00
18436;BME280;9346;52.006;4.720;2023-08-20T03:45:14;102057.25;;;19.01;100.00
18436;BME280;9346;52.006;4.720;2023-08-20T03:47:42;102057.84;;;18.98;100.00
18436;BME280;9346;52.006;4.720;2023-08-20T03:50:12;102055.91;;;18.98;100.00
18436;BME280;9346;52.006;4.720;2023-08-20T03:52:39;102051.72;;;18.96;100.00
18436;BME280;9346;52.006;4.720;2023-08-20T03:55:06;102050.97;;;18.90;100.00
18436;BME280;9346;52.006;4.720;2023-08-20T03:57:33;102052.41;;;18.88;100.00
18436;BME280;9346;52.006;4.720;2023-08-20T04:00:00;102048.56;;;18.84;100.00
18436;BME280;9346;52.006;4.720;2023-08-20T04:02:28;102051.88;;;18.86;100.00
18436;BME280;9346;52.006;4.720;2023-08-20T04:04:58;102059.19;;;18.82;100.00
18436;BME280;9346;52.006;4.720;2023-08-20T04:07:25;102051.41;;;18.79;100.00
18436;BME280;9346;52.006;4.720;2023-08-20T04:09:52;102059.25;;;18.77;100.00
18436;BME280;9346;52.006;4.720;2023-08-20T04:12:19;102065.16;;;18.75;100.00
18436;BME280;9346;52.006;4.720;2023-08-20T04:14:47;102066.28;;;18.74;100.00
18436;BME280;9346;52.006;4.720;2023-08-20T04:17:14;102072.44;;;18.71;100.00
18436;BME280;9346;52.006;4.720;2023-08-20T04:19:41;102079.47;;;18.69;100.00
18436;BME280;9346;52.006;4.720;2023-08-20T04:22:09;102077.28;;;18.66;100.00
18436;BME280;9346;52.006;4.720;2023-08-20T04:24:36;102081.50;;;18.63;100.00
18436;BME280;9346;52.006;4.720;2023-08-20T04:27:03;102090.16;;;18.62;100.00
18436;BME280;9346;52.006;4.720;2023-08-20T04:29:31;102087.97;;;18.59;100.00
18436;BME280;9346;52.006;4.720;2023-08-20T04:31:58;102100.88;;;18.55;100.00
18436;BME280;9346;52.006;4.720;2023-08-20T04:34:26;102093.84;;;18.57;100.00
18436;BME280;9346;52.006;4.720;2023-08-20T04:36:53;102104.72;;;18.59;100.00
18436;BME280;9346;52.006;4.720;2023-08-20T04:39:21;102104.16;;;18.57;100.00
18436;BME280;9346;52.006;4.720;2023-08-20T04:41:48;102108.94;;;18.56;100.00
18436;BME280;9346;52.006;4.720;2023-08-20T04:44:15;102109.25;;;18.55;100.00
18436;BME280;9346;52.006;4.720;2023-08-20T04:46:42;102112.03;;;18.55;100.00
18436;BME280;9346;52.006;4.720;2023-08-20T04:49:09;102105.91;;;18.53;100.00
18436;BME280;9346;52.006;4.720;2023-08-20T04:51:36;102110.94;;;18.51;100.00
18436;BME280;9346;52.006;4.720;2023-08-20T04:54:03;102106.78;;;18.48;100.00
18436;BME280;9346;52.006;4.720;2023-08-20T04:56:32;102111.53;;;18.48;100.00
18436;BME280;9346;52.006;4.720;2023-08-20T04:58:59;102114.09;;;18.44;100.00
18436;BME280;9346;52.006;4.720;2023-08-20T05:01:26;102110.75;;;18.42;100.00
18436;BME280;9346;52.006;4.720;2023-08-20T05:03:53;102108.25;;;18.41;100.00
18436;BME280;9346;52.006;4.720;2023-08-20T05:06:19;102110.53;;;18.39;100.00
18436;BME280;9346;52.006;4.720;2023-08-20T05:08:46;102104.97;;;18.39;100.00
18436;BME280;9346;52.006;4.720;2023-08-20T05:11:13;102113.63;;;18.37;100.00
18436;BME280;9346;52.006;4.720;2023-08-20T05:13:42;102118.34;;;18.37;100.00
18436;BME280;9346;52.006;4.720;2023-08-20T05:16:08;102106.63;;;18.35;100.00
18436;BME280;9346;52.006;4.720;2023-08-20T05:18:35;102115.00;;;18.35;100.00
18436;BME280;9346;52.006;4.720;2023-08-20T05:21:02;102121.41;;;18.35;100.00
18436;BME280;9346;52.006;4.720;2023-08-20T05:23:29;102113.03;;;18.35;100.00
18436;BME280;9346;52.006;4.720;2023-08-20T05:25:56;102117.78;;;18.35;100.00
18436;BME280;9346;52.006;4.720;2023-08-20T05:28:23;102115.00;;;18.35;100.00
18436;BME280;9346;52.006;4.720;2023-08-20T05:31:06;102118.63;;;18.35;100.00
18436;BME280;9346;52.006;4.720;2023-08-20T05:33:33;102124.19;;;18.35;100.00
18436;BME280;9346;52.006;4.720;2023-08-20T05:36:00;102130.63;;;18.36;100.00
18436;BME280;9346;52.006;4.720;2023-08-20T05:38:27;102122.00;;;18.37;100.00
18436;BME280;9346;52.006;4.720;2023-08-20T05:40:54;102121.41;;;18.40;100.00
18436;BME280;9346;52.006;4.720;2023-08-20T05:43:20;102126.97;;;18.40;100.00
18436;BME280;9346;52.006;4.720;2023-08-20T05:45:47;102118.31;;;18.42;100.00
18436;BME280;9346;52.006;4.720;2023-08-20T05:48:16;102122.75;;;18.43;100.00
18436;BME280;9346;52.006;4.720;2023-08-20T05:50:44;102121.09;;;18.42;100.00
18436;BME280;9346;52.006;4.720;2023-08-20T05:53:11;102121.63;;;18.44;100.00
18436;BME280;9346;52.006;4.720;2023-08-20T05:55:38;102118.25;;;18.47;100.00
18436;BME280;9346;52.006;4.720;2023-08-20T05:58:05;102122.69;;;18.48;100.00
18436;BME280;9346;52.006;4.720;2023-08-20T06:00:32;102123.53;;;18.48;100.00
18436;BME280;9346;52.006;4.720;2023-08-20T06:02:59;102130.47;;;18.51;100.00
18436;BME280;9346;52.006;4.720;2023-08-20T06:05:28;102123.50;;;18.53;100.00
18436;BME280;9346;52.006;4.720;2023-08-20T06:07:54;102128.78;;;18.55;100.00
18436;BME280;9346;52.006;4.720;2023-08-20T06:10:21;102130.97;;;18.58;100.00
18436;BME280;9346;52.006;4.720;2023-08-20T06:12:48;102129.53;;;18.60;100.00
18436;BME280;9346;52.006;4.720;2023-08-20T06:15:15;102134.22;;;18.65;100.00
18436;BME280;9346;52.006;4.720;2023-08-20T06:17:42;102136.44;;;18.68;100.00
18436;BME280;9346;52.006;4.720;2023-08-20T06:20:10;102140.28;;;18.72;100.00
18436;BME280;9346;52.006;4.720;2023-08-20T06:22:39;102143.84;;;18.77;100.00
18436;BME280;9346;52.006;4.720;2023-08-20T06:25:06;102145.16;;;18.85;100.00
18436;BME280;9346;52.006;4.720;2023-08-20T06:27:33;102145.09;;;18.90;100.00
18436;BME280;9346;52.006;4.720;2023-08-20T06:30:00;102137.78;;;18.94;100.00
18436;BME280;9346;52.006;4.720;2023-08-20T06:32:27;102137.38;;;19.00;100.00
18436;BME280;9346;52.006;4.720;2023-08-20T06:34:54;102147.66;;;19.05;100.00
18436;BME280;9346;52.006;4.720;2023-08-20T06:37:20;102150.09;;;19.11;100.00
18436;BME280;9346;52.006;4.720;2023-08-20T06:39:49;102150.56;;;19.18;100.00
18436;BME280;9346;52.006;4.720;2023-08-20T06:42:16;102153.81;;;19.25;100.00
18436;BME280;9346;52.006;4.720;2023-08-20T06:44:43;102157.38;;;19.31;100.00
18436;BME280;9346;52.006;4.720;2023-08-20T06:47:09;102150.59;;;19.37;100.00
18436;BME280;9346;52.006;4.720;2023-08-20T06:49:37;102147.44;;;19.43;100.00
18436;BME280;9346;52.006;4.720;2023-08-20T06:52:04;102143.75;;;19.48;100.00
18436;BME280;9346;52.006;4.720;2023-08-20T06:54:30;102150.91;;;19.54;100.00
18436;BME280;9346;52.006;4.720;2023-08-20T06:56:59;102161.72;;;19.60;100.00
18436;BME280;9346;52.006;4.720;2023-08-20T06:59:26;102160.81;;;19.65;100.00
18436;BME280;9346;52.006;4.720;2023-08-20T07:01:53;102165.19;;;19.71;100.00
18436;BME280;9346;52.006;4.720;2023-08-20T07:04:20;102166.25;;;19.75;100.00
18436;BME280;9346;52.006;4.720;2023-08-20T07:06:47;102175.38;;;19.80;100.00
18436;BME280;9346;52.006;4.720;2023-08-20T07:09:14;102169.41;;;19.87;100.00
18436;BME280;9346;52.006;4.720;2023-08-20T07:11:41;102173.78;;;19.93;100.00
18436;BME280;9346;52.006;4.720;2023-08-20T07:14:10;102166.94;;;19.99;100.00
18436;BME280;9346;52.006;4.720;2023-08-20T07:16:37;102168.31;;;20.02;100.00
18436;BME280;9346;52.006;4.720;2023-08-20T07:19:04;102180.25;;;20.07;100.00
18436;BME280;9346;52.006;4.720;2023-08-20T07:21:31;102180.72;;;20.14;100.00
18436;BME280;9346;52.006;4.720;2023-08-20T07:23:58;102187.34;;;20.18;100.00
18436;BME280;9346;52.006;4.720;2023-08-20T07:26:25;102178.34;;;20.21;100.00
18436;BME280;9346;52.006;4.720;2023-08-20T07:28:52;102181.06;;;20.26;100.00
18436;BME280;9346;52.006;4.720;2023-08-20T07:31:28;102180.34;;;20.34;100.00
18436;BME280;9346;52.006;4.720;2023-08-20T07:33:56;102182.22;;;20.39;100.00
18436;BME280;9346;52.006;4.720;2023-08-20T07:36:24;102184.09;;;20.43;100.00
18436;BME280;9346;52.006;4.720;2023-08-20T07:38:52;102186.50;;;20.50;100.00
18436;BME280;9346;52.006;4.720;2023-08-20T07:41:20;102182.16;;;20.57;100.00
18436;BME280;9346;52.006;4.720;2023-08-20T07:43:47;102186.00;;;20.61;100.00
18436;BME280;9346;52.006;4.720;2023-08-20T07:46:15;102182.91;;;20.63;100.00
18436;BME280;9346;52.006;4.720;2023-08-20T07:48:44;102181.44;;;20.65;100.00
18436;BME280;9346;52.006;4.720;2023-08-20T07:51:11;102181.63;;;20.69;100.00
18436;BME280;9346;52.006;4.720;2023-08-20T07:53:38;102191.09;;;20.73;100.00
18436;BME280;9346;52.006;4.720;2023-08-20T07:56:05;102182.28;;;20.79;100.00
18436;BME280;9346;52.006;4.720;2023-08-20T07:58:32;102193.38;;;20.84;100.00
18436;BME280;9346;52.006;4.720;2023-08-20T08:00:59;102184.06;;;20.89;100.00
18436;BME280;9346;52.006;4.720;2023-08-20T08:03:26;102185.94;;;20.93;100.00
18436;BME280;9346;52.006;4.720;2023-08-20T08:05:55;102181.88;;;20.99;100.00
18436;BME280;9346;52.006;4.720;2023-08-20T08:08:22;102183.13;;;21.07;100.00
18436;BME280;9346;52.006;4.720;2023-08-20T08:10:49;102183.53;;;21.14;100.00
18436;BME280;9346;52.006;4.720;2023-08-20T08:13:18;102181.16;;;21.21;100.00
18436;BME280;9346;52.006;4.720;2023-08-20T08:15:46;102181.25;;;21.29;100.00
18436;BME280;9346;52.006;4.720;2023-08-20T08:18:13;102182.50;;;21.37;100.00
18436;BME280;9346;52.006;4.720;2023-08-20T08:20:41;102181.41;;;21.46;100.00
18436;BME280;9346;52.006;4.720;2023-08-20T08:23:09;102182.97;;;21.52;100.00
18436;BME280;9346;52.006;4.720;2023-08-20T08:25:36;102181.19;;;21.56;100.00
18436;BME280;9346;52.006;4.720;2023-08-20T08:28:06;102187.81;;;21.60;100.00
18436;BME280;9346;52.006;4.720;2023-08-20T08:30:33;102182.63;;;21.67;100.00
18436;BME280;9346;52.006;4.720;2023-08-20T08:33:00;102186.44;;;21.71;100.00
18436;BME280;9346;52.006;4.720;2023-08-20T08:35:27;102188.34;;;21.76;100.00
18436;BME280;9346;52.006;4.720;2023-08-20T08:37:54;102190.69;;;21.82;100.00
18436;BME280;9346;52.006;4.720;2023-08-20T08:40:23;102190.38;;;21.84;100.00
18436;BME280;9346;52.006;4.720;2023-08-20T08:42:53;102184.13;;;21.87;100.00
18436;BME280;9346;52.006;4.720;2023-08-20T08:45:21;102188.78;;;21.91;100.00
18436;BME280;9346;52.006;4.720;2023-08-20T08:47:51;102189.81;;;21.95;100.00
18436;BME280;9346;52.006;4.720;2023-08-20T08:50:20;102192.81;;;21.99;100.00
18436;BME280;9346;52.006;4.720;2023-08-20T08:52:50;102191.66;;;22.00;100.00
18436;BME280;9346;52.006;4.720;2023-08-20T08:55:18;102192.19;;;22.02;100.00
18436;BME280;9346;52.006;4.720;2023-08-20T08:57:46;102193.19;;;22.06;100.00
18436;BME280;9346;52.006;4.720;2023-08-20T09:00:14;102193.88;;;22.12;100.00
18436;BME280;9346;52.006;4.720;2023-08-20T09:02:41;102196.25;;;22.18;100.00
18436;BME280;9346;52.006;4.720;2023-08-20T09:05:09;102191.66;;;22.22;100.00
18436;BME280;9346;52.006;4.720;2023-08-20T09:07:41;102190.38;;;22.28;100.00
18436;BME280;9346;52.006;4.720;2023-08-20T09:10:09;102196.03;;;22.37;100.00
18436;BME280;9346;52.006;4.720;2023-08-20T09:12:36;102191.44;;;22.41;100.00
18436;BME280;9346;52.006;4.720;2023-08-20T09:15:10;102195.78;;;22.47;100.00
18436;BME280;9346;52.006;4.720;2023-08-20T09:17:37;102187.56;;;22.50;100.00
18436;BME280;9346;52.006;4.720;2023-08-20T09:20:04;102201.47;;;22.55;100.00
18436;BME280;9346;52.006;4.720;2023-08-20T09:22:35;102205.28;;;22.59;100.00
18436;BME280;9346;52.006;4.720;2023-08-20T09:25:03;102198.53;;;22.60;100.00
18436;BME280;9346;52.006;4.720;2023-08-20T09:27:38;102202.16;;;22.61;100.00
18436;BME280;9346;52.006;4.720;2023-08-20T09:30:09;102197.06;;;22.63;100.00
18436;BME280;9346;52.006;4.720;2023-08-20T09:32:37;102197.56;;;22.65;100.00
18436;BME280;9346;52.006;4.720;2023-08-20T09:35:05;102194.75;;;22.65;100.00
18436;BME280;9346;52.006;4.720;2023-08-20T09:37:32;102186.34;;;22.65;100.00
18436;BME280;9346;52.006;4.720;2023-08-20T09:40:02;102198.06;;;22.67;100.00
18436;BME280;9346;52.006;4.720;2023-08-20T09:42:30;102195.97;;;22.72;100.00
18436;BME280;9346;52.006;4.720;2023-08-20T09:44:59;102207.03;;;22.77;100.00
18436;BME280;9346;52.006;4.720;2023-08-20T09:47:29;102203.59;;;22.80;100.00
18436;BME280;9346;52.006;4.720;2023-08-20T09:49:59;102196.16;;;22.84;100.00
18436;BME280;9346;52.006;4.720;2023-08-20T09:52:31;102204.25;;;22.86;100.00
18436;BME280;9346;52.006;4.720;2023-08-20T09:55:08;102206.09;;;22.90;100.00
18436;BME280;9346;52.006;4.720;2023-08-20T09:57:36;102210.88;;;22.90;100.00
18436;BME280;9346;52.006;4.720;2023-08-20T10:00:04;102211.41;;;22.92;100.00
18436;BME280;9346;52.006;4.720;2023-08-20T10:02:37;102210.44;;;22.96;100.00
18436;BME280;9346;52.006;4.720;2023-08-20T10:05:05;102210.28;;;23.01;100.00
18436;BME280;9346;52.006;4.720;2023-08-20T10:07:33;102208.81;;;23.04;100.00
18436;BME280;9346;52.006;4.720;2023-08-20T10:10:01;102210.66;;;23.08;100.00
18436;BME280;9346;52.006;4.720;2023-08-20T10:12:29;102210.16;;;23.15;100.00
18436;BME280;9346;52.006;4.720;2023-08-20T10:14:57;102215.47;;;23.16;100.00
18436;BME280;9346;52.006;4.720;2023-08-20T10:17:25;102216.78;;;23.19;100.00
18436;BME280;9346;52.006;4.720;2023-08-20T10:19:54;102204.88;;;23.22;100.00
18436;BME280;9346;52.006;4.720;2023-08-20T10:22:21;102209.41;;;23.23;100.00
18436;BME280;9346;52.006;4.720;2023-08-20T10:24:50;102202.91;;;23.22;100.00
18436;BME280;9346;52.006;4.720;2023-08-20T10:27:25;102199.50;;;23.34;100.00
18436;BME280;9346;52.006;4.720;2023-08-20T10:29:53;102208.13;;;23.46;100.00
18436;BME280;9346;52.006;4.720;2023-08-20T10:32:20;102203.81;;;23.48;100.00
18436;BME280;9346;52.006;4.720;2023-08-20T10:35:09;102196.38;;;23.52;100.00
18436;BME280;9346;52.006;4.720;2023-08-20T10:37:36;102203.16;;;23.51;100.00
18436;BME280;9346;52.006;4.720;2023-08-20T10:40:06;102204.00;;;23.52;100.00
18436;BME280;9346;52.006;4.720;2023-08-20T10:42:40;102203.69;;;23.53;100.00
18436;BME280;9346;52.006;4.720;2023-08-20T10:45:08;102198.22;;;23.57;100.00
18436;BME280;9346;52.006;4.720;2023-08-20T10:47:37;102208.31;;;23.58;100.00
18436;BME280;9346;52.006;4.720;2023-08-20T10:50:04;102206.00;;;23.60;100.00
18436;BME280;9346;52.006;4.720;2023-08-20T10:52:38;102206.50;;;23.62;100.00
18436;BME280;9346;52.006;4.720;2023-08-20T10:55:07;102204.81;;;23.61;100.00
18436;BME280;9346;52.006;4.720;2023-08-20T10:57:37;102210.31;;;23.66;100.00
18436;BME280;9346;52.006;4.720;2023-08-20T11:00:05;102210.63;;;23.73;100.00
18436;BME280;9346;52.006;4.720;2023-08-20T11:02:37;102200.38;;;23.77;100.00
18436;BME280;9346;52.006;4.720;2023-08-20T11:05:15;102203.38;;;23.80;100.00
18436;BME280;9346;52.006;4.720;2023-08-20T11:07:45;102205.69;;;23.87;100.00
18436;BME280;9346;52.006;4.720;2023-08-20T11:10:14;102205.19;;;23.85;100.00
18436;BME280;9346;52.006;4.720;2023-08-20T11:12:41;102199.06;;;23.83;100.00
18436;BME280;9346;52.006;4.720;2023-08-20T11:15:09;102198.56;;;23.81;100.00
18436;BME280;9346;52.006;4.720;2023-08-20T11:17:42;102205.34;;;23.80;100.00
18436;BME280;9346;52.006;4.720;2023-08-20T11:20:09;102199.56;;;23.85;100.00
18436;BME280;9346;52.006;4.720;2023-08-20T11:22:45;102192.94;;;23.89;100.00
18436;BME280;9346;52.006;4.720;2023-08-20T11:25:13;102193.63;;;23.95;100.00
18436;BME280;9346;52.006;4.720;2023-08-20T11:27:40;102191.13;;;24.02;100.00
18436;BME280;9346;52.006;4.720;2023-08-20T11:30:08;102193.47;;;24.09;100.00
18436;BME280;9346;52.006;4.720;2023-08-20T11:32:37;102192.13;;;24.15;100.00
18436;BME280;9346;52.006;4.720;2023-08-20T11:35:05;102184.16;;;24.17;100.00
18436;BME280;9346;52.006;4.720;2023-08-20T11:37:32;102185.66;;;24.14;100.00
18436;BME280;9346;52.006;4.720;2023-08-20T11:40:02;102183.00;;;24.09;100.00
18436;BME280;9346;52.006;4.720;2023-08-20T11:42:29;102179.72;;;24.07;100.00
18436;BME280;9346;52.006;4.720;2023-08-20T11:44:56;102175.22;;;24.06;100.00
18436;BME280;9346;52.006;4.720;2023-08-20T11:47:23;102172.41;;;24.06;100.00
18436;BME280;9346;52.006;4.720;2023-08-20T11:50:02;102176.41;;;24.05;100.00
18436;BME280;9346;52.006;4.720;2023-08-20T11:52:31;102173.25;;;24.07;100.00
18436;BME280;9346;52.006;4.720;2023-08-20T11:54:59;102168.94;;;24.09;100.00
18436;BME280;9346;52.006;4.720;2023-08-20T11:57:28;102171.94;;;24.13;100.00
18436;BME280;9346;52.006;4.720;2023-08-20T11:59:55;102178.19;;;24.18;100.00
18436;BME280;9346;52.006;4.720;2023-08-20T12:02:25;102193.25;;;24.22;100.00
18436;BME280;9346;52.006;4.720;2023-08-20T12:04:55;102189.78;;;24.25;100.00
18436;BME280;9346;52.006;4.720;2023-08-20T12:07:25;102196.25;;;24.26;100.00
18436;BME280;9346;52.006;4.720;2023-08-20T12:09:53;102199.91;;;24.26;100.00
18436;BME280;9346;52.006;4.720;2023-08-20T12:12:20;102201.88;;;24.26;100.00
18436;BME280;9346;52.006;4.720;2023-08-20T12:14:49;102190.63;;;24.26;100.00
18436;BME280;9346;52.006;4.720;2023-08-20T12:17:16;102202.53;;;24.23;100.00
18436;BME280;9346;52.006;4.720;2023-08-20T12:19:43;102194.75;;;24.20;100.00
18436;BME280;9346;52.006;4.720;2023-08-20T12:22:10;102199.91;;;24.18;100.00
18436;BME280;9346;52.006;4.720;2023-08-20T12:24:38;102204.38;;;24.19;100.00
18436;BME280;9346;52.006;4.720;2023-08-20T12:27:05;102201.22;;;24.20;100.00
18436;BME280;9346;52.006;4.720;2023-08-20T12:29:32;102198.75;;;24.19;100.00
18436;BME280;9346;52.006;4.720;2023-08-20T12:32:00;102202.41;;;24.19;100.00
18436;BME280;9346;52.006;4.720;2023-08-20T12:34:30;102205.22;;;24.19;100.00
18436;BME280;9346;52.006;4.720;2023-08-20T12:36:56;102196.78;;;24.19;100.00
18436;BME280;9346;52.006;4.720;2023-08-20T12:39:23;102197.09;;;24.18;100.00
18436;BME280;9346;52.006;4.720;2023-08-20T12:41:50;102203.06;;;24.16;100.00
18436;BME280;9346;52.006;4.720;2023-08-20T12:44:17;102195.59;;;24.20;100.00
18436;BME280;9346;52.006;4.720;2023-08-20T12:46:44;102194.94;;;24.23;100.00
18436;BME280;9346;52.006;4.720;2023-08-20T12:49:12;102194.41;;;24.30;100.00
18436;BME280;9346;52.006;4.720;2023-08-20T12:51:39;102190.25;;;24.36;100.00
18436;BME280;9346;52.006;4.720;2023-08-20T12:54:06;102193.38;;;24.43;100.00